Valley Peak, Santa Cruz Island Reserve, California Weather observations

Data are for 10 minute period ending at time listed.
 Day   Time   Solar   Ave.   Ave.  Ave.  Vector  Max.   Baro.   Total    
  of    of     Rad.   Air    Rel.  Wind   Wind   Wind  Press.  Precip.   
Year   Day            Temp.  Hum.  Speed  Dir.   Gust                    
2014   (PST)  Kw/m2    F      %     mph   deg.    mph    mb.     in.     
-------------------------------------------------------------------------
 351   10:20   0.50   53.9    62   12.8   347    23.5   968.1    0.00 
 351   10:30   0.51   54.3    62   12.1   349    20.2   968.2    0.00 
 351   10:40   0.52   54.6    62   13.2   354    25.6   968.1    0.00 
 351   10:50   0.53   54.6    61   12.8   349    19.9   968.1    0.00 
 351   11:00   0.53   54.6    62   14.1   324    22.5   968.1    0.00 
 351   11:10   0.56   54.6    62   14.9   325    23.9   968.1    0.00 
 351   11:20   0.54   54.6    62   13.5   333    24.0   968.2    0.00 
 351   11:30   0.56   55.2    61   10.8   322    23.7   968.5    0.00 
 351   11:40   0.58   55.9    62   12.2   312    20.0   968.5    0.00 
 351   11:50   0.55   55.4    58   16.4   312    29.5   968.4    0.00 
 351   12:00   0.44   54.8    58   14.3   303    22.8   968.5    0.00 
 351   12:10   0.55   55.7    56   13.5   306    22.9   968.6    0.00 
 351   12:20   0.48   56.6    57    9.4   310    22.4   968.6    0.00 
 351   12:30   0.28   55.1    60   13.0   316    20.1   968.6    0.00 
 351   12:40   0.25   54.0    63   14.4   313    28.7   968.5    0.00 
 351   12:50   0.26   53.6    62   13.7   325    24.5   968.4    0.00 
 351   13:00   0.22   53.7    62   13.3   317    20.1   968.4    0.00 
 351   13:10   0.21   53.6    62   17.1   306    27.8   968.3    0.00 
 351   13:20   0.21   53.5    60   15.1   322    25.6   968.3    0.00 
 351   13:30   0.23   53.4    58   19.0   318    29.0   968.3    0.00 
 351   13:40   0.22   53.5    59   17.1   313    26.1   968.2    0.00 
 351   13:50   0.19   53.3    60   17.4   312    28.1   968.3    0.00 
 351   14:00   0.12   53.1    63   18.0   318    33.0   968.3    0.00 
 351   14:10   0.10   53.0    63   12.9   308    22.0   968.4    0.00 
 351   14:20   0.10   53.0    61   16.2   295    26.7   968.4    0.00 
 351   14:30   0.08   52.9    60   15.8   303    36.2   968.2    0.00 
 351   14:40   0.06   52.8    58   21.9   320    33.5   968.0    0.00 
 351   14:50   0.04   52.6    60   23.2   320    38.1   967.9    0.00 
 351   15:00   0.04   52.5    63   23.6   317    33.4   968.1    0.00 
 351   15:10   0.05   52.2    67   20.0   316    31.4   968.2    0.00 
 351   15:20   0.07   52.2    62   20.1   319    32.2   968.2    0.00 
 351   15:30   0.10   52.4    58   15.9   333    24.2   968.0    0.00 
 351   15:40   0.10   53.0    51   14.7   340    24.5   967.9    0.00 
 351   15:50   0.08   53.0    50   15.3   339    24.9   968.1    0.00 
 351   16:00   0.05   52.7    53   16.8   324    26.7   968.4    0.00 
 351   16:10   0.04   52.7    57   15.2   315    24.3   968.4    0.00 
 351   16:20   0.02   52.8    58   13.9   315    23.8   968.4    0.00 
 351   16:30   0.01   52.7    58   15.2   319    24.0   968.3    0.00 
 351   16:40   0.02   53.0    57   14.9   317    22.1   968.2    0.00 
 351   16:50   0.01   52.8    58   13.7   308    21.9   968.3    0.00 
 351   17:00   0.00   52.4    58   13.5   312    20.5   968.4    0.00 
 351   17:10   0.00   52.5    56   14.5   316    22.1   968.3    0.00 
 351   17:20   0.00   52.3    56   11.9   330    21.3   968.2    0.00 
 351   17:30   0.00   52.2    55   13.7   337    20.6   968.2    0.00 
 351   17:40   0.00   52.0    56   14.5   343    22.1   968.2    0.00 
 351   17:50   0.00   51.7    59   14.7   330    22.6   968.4    0.00 
 351   18:00   0.00   51.5    61   13.4   325    20.0   968.4    0.00 
 351   18:10   0.00   51.7    58   15.3   319    21.4   968.5    0.00 
 351   18:20   0.00   51.7    57   13.4   324    19.6   968.6    0.00 
 351   18:30   0.00   51.9    57   15.0   320    22.5   968.8    0.00 
 351   18:40   0.00   51.7    61   14.5   314    21.8   968.9    0.00 
 351   18:50   0.00   51.5    63   14.8   314    22.1   968.9    0.00 
 351   19:00   0.00   51.4    64   14.9   312    22.2   968.9    0.00 
 351   19:10   0.00   51.4    62   13.8   308    22.9   968.9    0.00 
 351   19:20   0.00   51.3    60   13.2   305    21.1   969.1    0.00 
 351   19:30   0.00   51.6    58   14.2   316    24.0   969.1    0.00 
 351   19:40   0.00   51.5    63   17.0   320    29.2   969.1    0.00 
 351   19:50   0.00   51.4    64   15.7   324    25.6   969.0    0.00 
 351   20:00   0.00   51.3    64   17.6   318    24.1   969.2    0.00 
 351   20:10   0.00   51.3    63   15.8   316    24.6   969.2    0.00 
 351   20:20   0.00   51.2    64   17.1   314    24.0   969.2    0.00 
 351   20:30   0.00   51.2    64   17.2   318    27.2   969.3    0.00 
 351   20:40   0.00   51.2    64   14.7   325    23.6   969.4    0.00 
 351   20:50   0.00   51.1    66   15.4   336    24.4   969.3    0.00 
 351   21:00   0.00   51.2    66   16.2   336    25.9   969.2    0.00 
 351   21:10   0.00   51.2    67   14.7   338    25.1   969.2    0.00 
 351   21:20   0.00   51.5    64   16.3   334    25.3   969.4    0.00 
 351   21:30   0.00   51.5    65   14.0   334    22.5   969.5    0.00 
 351   21:40   0.00   51.5    65   15.9   322    24.8   969.7    0.00 
 351   21:50   0.00   51.6    64   15.4   324    23.7   969.8    0.00 
 351   22:00   0.00   51.4    66   14.5   325    22.6   969.8    0.00 
 351   22:10   0.00   51.5    65   14.9   319    20.5   969.8    0.00 
 351   22:20   0.00   51.4    64   13.6   326    19.9   969.8    0.00 
 351   22:30   0.00   51.3    62   14.2   323    22.6   969.8    0.00 
 351   22:40   0.00   51.4    61   12.7   324    20.5   969.8    0.00 
 351   22:50   0.00   51.3    61   12.9   319    19.7   969.8    0.00 
 351   23:00   0.00   51.2    60   12.1   314    18.9   969.8    0.00 
 351   23:10   0.00   51.2    60   11.8   312    18.7   969.8    0.00 
 351   23:20   0.00   51.2    59   11.8   313    16.5   969.7    0.00 
 351   23:30   0.00   51.2    61   12.0   310    17.4   969.6    0.00 
 351   23:40   0.00   51.3    61   10.7   312    17.4   969.6    0.00 
 351   23:50   0.00   51.1    62   11.1   302    16.7   969.6    0.00 
 352    0:00   0.00   51.1    61   10.6   303    15.9   969.5    0.00 
 352    0:10   0.00   51.0    62   11.0   295    16.3   969.5    0.00 
 352    0:20   0.00   51.2    63   11.0   296    15.1   969.5    0.00 
 352    0:30   0.00   51.1    64   11.3   288    15.7   969.5    0.00 
 352    0:40   0.00   51.1    66   12.1   292    18.0   969.5    0.00 
 352    0:50   0.00   50.9    69   11.1   292    17.9   969.5    0.00 
 352    1:00   0.00   50.8    70   10.5   294    15.8   969.5    0.00 
 352    1:10   0.00   50.5    72    9.9   289    13.7   969.6    0.00 
 352    1:20   0.00   50.3    75    9.5   288    13.7   969.6    0.00 
 352    1:30   0.00   50.7    74   10.1   289    15.9   969.6    0.00 
 352    1:40   0.00   51.0    73    9.9   296    14.5   969.6    0.00 
 352    1:50   0.00   51.2    72   11.3   297    16.1   969.8    0.00 
 352    2:00   0.00   51.2    73   10.9   298    16.9   969.8    0.00 
 352    2:10   0.00   51.1    74    9.5   297    14.1   969.8    0.00 
 352    2:20   0.00   50.8    77    8.6   297    11.7   969.8    0.00 
 352    2:30   0.00   50.6    79    7.8   286    11.7   969.8    0.00 
 352    2:40   0.00   50.5    78    8.8   279    13.4   969.8    0.00 
 352    2:50   0.00   50.2    78    7.8   285    10.4   969.8    0.00 
 352    3:00   0.00   49.9    81    7.4   290    10.6   969.8    0.00 
 352    3:10   0.00   50.4    77    8.9   276    12.6   969.8    0.00 
 352    3:20   0.00   50.5    74    7.4   284     9.8   969.8    0.00 
 352    3:30   0.00   50.7    74    5.7   286     8.4   969.8    0.00 
 352    3:40   0.00   50.7    74    4.7   322     7.5   969.7    0.00 
 352    3:50   0.00   50.5    75    4.6     6     5.9   969.6    0.00 
 352    4:00   0.00   50.6    76    4.9     6     6.8   969.7    0.00 
 352    4:10   0.00   50.8    78    5.3   344     7.5   969.7    0.00 
 352    4:20   0.00   50.7    80    5.1   329     6.9   969.7    0.00 
 352    4:30   0.00   50.8    77    3.9   311     6.1   969.7    0.00 
 352    4:40   0.00   50.9    78    3.9   289     6.1   969.8    0.00 
 352    4:50   0.00   50.8    78    3.8   294     6.2   969.8    0.00 
 352    5:00   0.00   51.0    80    4.3   274     6.5   969.7    0.00 
 352    5:10   0.00   51.2    82    5.6   255     6.9   969.7    0.00 
 352    5:20   0.00   50.9    84    5.5   250     7.3   969.8    0.00 
 352    5:30   0.00   50.7    85    7.4   230     8.7   969.8    0.00 
 352    5:40   0.00   50.7    86    6.6   236     7.6   969.9    0.00 
 352    5:50   0.00   51.0    87    5.6   225     6.4   969.9    0.00 
 352    6:00   0.00   50.9    88    5.2   210     6.6   969.9    0.00 
 352    6:10   0.00   50.9    88    6.8   200     8.0   970.0    0.00 
 352    6:20   0.00   51.2    88    5.1   181     6.8   970.1    0.00 
 352    6:30   0.00   51.2    88    5.0   163     6.6   970.1    0.00 
 352    6:40   0.00   50.9    89    5.1   164     8.3   970.2    0.00 
 352    6:50   0.00   50.6    92    5.2   165     8.5   970.2    0.00 
 352    7:00   0.00   50.0    93    5.5   156     8.8   970.3    0.00 
 352    7:10   0.00   49.9    95    4.6   155    10.9   970.3    0.00 
 352    7:20   0.00   50.0    95    6.5   167    11.5   970.4    0.00 
 352    7:30   0.01   49.9    96    7.1   164    12.8   970.5    0.00 
 352    7:40   0.01   49.8    98    4.2   144     9.4   970.6    0.00 
 352    7:50   0.01   50.1    98    3.4   140     7.9   970.7    0.01 
 352    8:00   0.03   50.5    99    3.4   135     8.0   970.7    0.01 
 352    8:10   0.03   50.8    99    3.7   102     8.0   970.9    0.01 
 352    8:20   0.02   50.8    99    4.9    88     7.5   971.0    0.02 
 352    8:30   0.04   50.8    99    3.8    79     6.5   971.1    0.02 
 352    8:40   0.05   50.9    99    2.9    67     4.7   971.2    0.01 
 352    8:50   0.04   50.9    99    2.8    38     5.1   971.3    0.01 
 352    9:00   0.05   50.4    99    5.2    29     8.6   971.4    0.03 
 352    9:10   0.05   49.8    99    7.3    28     8.8   971.6    0.01 
 352    9:20   0.06   49.3   100    7.5    20     9.2   971.8    0.01 
 352    9:30   0.07   49.2   100    7.3    25    10.2   972.0    0.01 
 352    9:40   0.07   49.0   100    8.4    21    12.1   972.1    0.00 
 352    9:50   0.06   48.8   100    7.0    10    10.2   972.3    0.01 
 352   10:00   0.08   48.8   100    8.4    24    12.6   972.4    0.01 
 352   10:10   0.12   48.9   100   11.1    38    14.1   972.2    0.00 

Return to Valley Peak, Santa Cruz Island Reserve graphs page.


Western Regional Climate Center,wrcc@dri.edu